createdAt,value
2023-01-20T00:02:22.674Z,0.80
2023-01-20T00:04:49.789Z,0.90
2023-01-20T00:07:16.353Z,0.90
2023-01-20T00:09:42.938Z,0.90
2023-01-20T00:12:11.930Z,1.10
2023-01-20T00:14:40.809Z,0.80
2023-01-20T00:17:07.377Z,0.80
2023-01-20T00:19:33.970Z,0.90
2023-01-20T00:22:01.772Z,0.90
2023-01-20T00:24:28.429Z,1.10
2023-01-20T00:26:57.479Z,1.10
2023-01-20T00:29:26.469Z,1.10
2023-01-20T00:31:53.203Z,0.90
2023-01-20T00:34:19.913Z,1.00
2023-01-20T00:36:46.434Z,1.00
2023-01-20T00:39:15.400Z,0.70
2023-01-20T00:41:41.918Z,0.90
2023-01-20T00:44:11.121Z,1.00
2023-01-20T00:46:37.850Z,0.90
2023-01-20T00:49:06.910Z,1.00
2023-01-20T00:51:35.643Z,1.00
2023-01-20T00:54:02.217Z,0.80
2023-01-20T00:56:30.906Z,0.90
2023-01-20T00:58:59.760Z,0.80
2023-01-20T01:01:26.593Z,0.80
2023-01-20T01:03:54.404Z,0.80
2023-01-20T01:06:21.196Z,0.90
2023-01-20T01:08:47.725Z,0.90
2023-01-20T01:11:14.553Z,0.90
2023-01-20T01:13:41.176Z,1.00
2023-01-20T01:16:12.715Z,0.70
2023-01-20T01:18:39.748Z,0.80
2023-01-20T01:21:10.276Z,0.60
2023-01-20T01:23:37.191Z,0.80
2023-01-20T01:26:04.152Z,0.80
2023-01-20T01:28:30.699Z,0.60
2023-01-20T01:31:00.770Z,0.60
2023-01-20T01:33:27.661Z,0.60
2023-01-20T01:35:57.449Z,0.70
2023-01-20T01:38:24.467Z,0.70
2023-01-20T01:40:52.097Z,0.60
2023-01-20T01:43:26.509Z,0.40
2023-01-20T01:45:53.440Z,0.30
2023-01-20T01:48:28.037Z,0.30
2023-01-20T01:51:09.610Z,0.50
2023-01-20T01:53:43.995Z,0.30
2023-01-20T01:56:11.313Z,0.30
2023-01-20T01:58:39.750Z,0.40
2023-01-20T02:01:06.643Z,0.20
2023-01-20T02:03:57.749Z,0.50
2023-01-20T02:06:25.385Z,0.20
2023-01-20T02:08:54.386Z,0.40
2023-01-20T02:11:23.336Z,0.40
2023-01-20T02:13:50.289Z,0.40
2023-01-20T02:16:35.743Z,0.10
2023-01-20T02:19:07.589Z,0.20
2023-01-20T02:21:48.979Z,-3276.50
2023-01-20T02:24:34.684Z,0.00
2023-01-20T02:27:03.503Z,-3276.60
2023-01-20T02:29:37.754Z,0.00
2023-01-20T02:32:04.311Z,-3276.70
2023-01-20T02:34:30.890Z,-3276.70
2023-01-20T02:37:04.153Z,0.00
2023-01-20T02:39:39.957Z,0.00
2023-01-20T02:42:32.308Z,0.00
2023-01-20T02:45:13.016Z,0.10
2023-01-20T02:47:55.581Z,0.10
2023-01-20T02:50:34.268Z,-3276.70
2023-01-20T02:53:04.262Z,-3276.70
2023-01-20T02:55:36.848Z,-3276.60
2023-01-20T02:58:22.426Z,0.00
2023-01-20T03:00:55.310Z,-3276.70
2023-01-20T03:03:26.723Z,-3276.50
2023-01-20T03:05:55.884Z,-3276.50
2023-01-20T03:08:26.985Z,-3276.70
2023-01-20T03:10:55.124Z,-3276.60
2023-01-20T03:13:23.941Z,-3276.70
2023-01-20T03:16:07.811Z,-3276.40
2023-01-20T03:18:34.592Z,-3276.60
2023-01-20T03:21:04.519Z,-3276.60
2023-01-20T03:23:33.690Z,-3276.40
2023-01-20T03:26:05.837Z,-3276.30
2023-01-20T03:28:32.574Z,-3276.60
2023-01-20T03:30:59.401Z,-3276.40
2023-01-20T03:33:26.344Z,-3276.60
2023-01-20T03:35:54.303Z,-3276.30
2023-01-20T03:38:23.165Z,-3276.40
2023-01-20T03:41:00.271Z,-3276.60
2023-01-20T03:43:33.825Z,-3276.10
2023-01-20T03:46:03.074Z,-3276.40
2023-01-20T03:48:40.700Z,-3276.30
2023-01-20T03:51:07.225Z,-3276.40
2023-01-20T03:53:37.454Z,-3276.50
2023-01-20T03:56:07.809Z,-3276.40
2023-01-20T03:58:36.767Z,-3276.50
2023-01-20T04:01:17.839Z,-3276.50
2023-01-20T04:03:47.392Z,-3276.30
2023-01-20T04:06:20.451Z,-3276.30
2023-01-20T04:08:51.961Z,-3276.20
2023-01-20T04:11:18.704Z,-3276.40
2023-01-20T04:13:45.317Z,-3276.40
2023-01-20T04:16:13.749Z,-3276.30
2023-01-20T04:18:41.542Z,-3276.50
2023-01-20T04:21:12.760Z,-3276.60
2023-01-20T04:23:41.986Z,-3276.60
2023-01-20T04:26:11.002Z,-3276.60
2023-01-20T04:28:37.908Z,-3276.60
2023-01-20T04:31:04.554Z,-3276.40
2023-01-20T04:33:31.179Z,-3276.50
2023-01-20T04:35:57.701Z,-3276.70
2023-01-20T04:38:26.507Z,-3276.60
2023-01-20T04:40:53.073Z,-3276.70
2023-01-20T04:43:19.628Z,-3276.70
2023-01-20T04:45:46.142Z,-3276.70
2023-01-20T04:48:17.644Z,-3276.60
2023-01-20T04:50:44.291Z,-3276.70
2023-01-20T04:53:12.481Z,-3276.50
2023-01-20T04:55:41.252Z,-3276.60
2023-01-20T04:58:12.182Z,-3276.70
2023-01-20T05:00:39.085Z,-3276.60
2023-01-20T05:03:06.137Z,-3276.70
2023-01-20T05:05:35.167Z,-3276.60
2023-01-20T05:08:02.848Z,-3276.60
2023-01-20T05:10:29.379Z,-3276.60
2023-01-20T05:12:55.935Z,-3276.70
2023-01-20T05:15:29.916Z,-3276.60
2023-01-20T05:17:58.736Z,-3276.50
2023-01-20T05:20:27.751Z,-3276.70
2023-01-20T05:22:54.648Z,0.00
2023-01-20T05:25:21.337Z,-3276.70
2023-01-20T05:27:47.985Z,-3276.70
2023-01-20T05:30:14.715Z,0.00
2023-01-20T05:32:41.378Z,0.00
2023-01-20T05:35:08.410Z,0.00
2023-01-20T05:37:34.965Z,0.00
2023-01-20T05:40:01.733Z,0.20
2023-01-20T05:42:28.460Z,0.10
2023-01-20T05:44:55.060Z,0.00
2023-01-20T05:47:21.991Z,0.00
2023-01-20T05:49:48.584Z,0.10
2023-01-20T05:52:15.489Z,0.00
2023-01-20T05:54:42.135Z,0.20
2023-01-20T05:57:10.962Z,0.20
2023-01-20T05:59:38.025Z,0.30
2023-01-20T06:02:04.739Z,0.30
2023-01-20T06:04:31.345Z,-3276.70
2023-01-20T06:06:58.050Z,-3276.60
2023-01-20T06:09:24.676Z,-3276.70
2023-01-20T06:11:53.318Z,0.20
2023-01-20T06:14:20.229Z,0.00
2023-01-20T06:16:46.868Z,0.00
2023-01-20T06:19:13.782Z,-3276.70
2023-01-20T06:21:42.584Z,0.00
2023-01-20T06:24:09.239Z,0.00
2023-01-20T06:26:35.849Z,0.00
2023-01-20T06:29:02.415Z,0.00
2023-01-20T06:31:29.083Z,-3276.60
2023-01-20T06:34:01.485Z,-3276.50
2023-01-20T06:36:28.016Z,-3276.70
2023-01-20T06:38:54.665Z,0.10
2023-01-20T06:41:21.278Z,0.20
2023-01-20T06:43:50.550Z,0.20
2023-01-20T06:46:19.773Z,0.20
2023-01-20T06:48:46.675Z,0.00
2023-01-20T06:51:14.721Z,0.20
2023-01-20T06:53:42.308Z,0.00
2023-01-20T06:56:10.478Z,0.20
2023-01-20T06:58:37.078Z,0.20
2023-01-20T07:01:07.169Z,0.10
2023-01-20T07:03:35.174Z,0.30
2023-01-20T07:06:05.078Z,0.00
2023-01-20T07:08:31.765Z,-3276.70
2023-01-20T07:11:00.805Z,0.10
2023-01-20T07:13:27.407Z,0.10
2023-01-20T07:15:53.929Z,-3276.70
2023-01-20T07:18:20.527Z,0.00
2023-01-20T07:20:47.126Z,0.00
2023-01-20T07:23:13.827Z,0.00
2023-01-20T07:25:40.414Z,0.00
2023-01-20T07:28:07.216Z,-3276.70
2023-01-20T07:30:33.826Z,-3276.60
2023-01-20T07:33:00.513Z,0.00
2023-01-20T07:35:27.124Z,-3276.70
2023-01-20T07:37:53.688Z,0.00
2023-01-20T07:40:20.281Z,0.00
2023-01-20T07:42:46.931Z,-3276.50
2023-01-20T07:45:13.934Z,-3276.70
2023-01-20T07:47:43.160Z,0.00
2023-01-20T07:50:10.036Z,0.00
2023-01-20T07:52:39.103Z,0.00
2023-01-20T07:55:07.965Z,0.00
2023-01-20T07:57:36.902Z,-3276.60
2023-01-20T08:00:04.230Z,-3276.40
2023-01-20T08:02:33.213Z,-3276.70
2023-01-20T08:04:59.912Z,-3276.60
2023-01-20T08:07:26.617Z,0.00
2023-01-20T08:09:53.604Z,-3276.70
2023-01-20T08:12:20.158Z,0.00
2023-01-20T08:14:46.713Z,-3276.60
2023-01-20T08:17:13.317Z,0.10
2023-01-20T08:19:39.921Z,0.00
2023-01-20T08:22:06.535Z,-3276.70
2023-01-20T08:24:33.204Z,-3276.60
2023-01-20T08:26:59.930Z,0.00
2023-01-20T08:29:26.618Z,0.00
2023-01-20T08:31:53.442Z,0.00
2023-01-20T08:34:23.102Z,0.30
2023-01-20T08:36:50.163Z,0.10
2023-01-20T08:39:18.980Z,0.20
2023-01-20T08:41:48.498Z,0.00
2023-01-20T08:44:16.461Z,0.30
2023-01-20T08:46:43.457Z,0.00
2023-01-20T08:49:11.909Z,0.40
2023-01-20T08:51:38.959Z,0.00
2023-01-20T08:54:05.565Z,0.40
2023-01-20T08:56:32.226Z,0.10
2023-01-20T08:58:59.199Z,0.00
2023-01-20T09:01:27.595Z,0.10
2023-01-20T09:04:06.442Z,0.10
2023-01-20T09:06:37.805Z,0.10
2023-01-20T09:09:06.893Z,0.10
2023-01-20T09:11:33.577Z,0.30
2023-01-20T09:14:00.230Z,0.30
2023-01-20T09:16:26.810Z,0.20
2023-01-20T09:18:53.380Z,0.40
2023-01-20T09:21:21.814Z,0.40
2023-01-20T09:23:48.595Z,0.70
2023-01-20T09:26:26.120Z,0.70
2023-01-20T09:29:08.818Z,0.90
2023-01-20T09:31:39.559Z,0.80
2023-01-20T09:34:06.419Z,1.00
2023-01-20T09:36:33.011Z,1.00
2023-01-20T09:39:18.277Z,0.90
2023-01-20T09:42:22.716Z,0.80
2023-01-20T09:44:49.285Z,0.80
2023-01-20T09:47:26.001Z,1.00
2023-01-20T09:50:17.714Z,1.00
2023-01-20T09:53:02.787Z,1.20
2023-01-20T09:55:37.972Z,1.20
2023-01-20T09:58:11.263Z,1.30
2023-01-20T10:00:39.633Z,1.40
2023-01-20T10:03:16.668Z,1.50
2023-01-20T10:05:44.278Z,1.50
2023-01-20T10:08:18.706Z,1.60
2023-01-20T10:10:45.268Z,1.50
2023-01-20T10:13:20.273Z,1.60
2023-01-20T10:15:56.942Z,1.50
2023-01-20T10:18:42.257Z,1.80
2023-01-20T10:21:11.224Z,1.70
2023-01-20T10:23:42.918Z,1.70
2023-01-20T10:26:38.130Z,2.00
2023-01-20T10:29:06.698Z,2.00
2023-01-20T10:31:34.978Z,2.50
2023-01-20T10:34:12.611Z,2.20
2023-01-20T10:36:45.632Z,2.30
2023-01-20T10:39:22.228Z,2.40
2023-01-20T10:42:04.503Z,2.40
2023-01-20T10:44:36.042Z,2.30
2023-01-20T10:47:21.791Z,2.10
2023-01-20T10:49:53.815Z,2.00
2023-01-20T10:52:37.928Z,1.80
2023-01-20T10:55:04.462Z,1.30
2023-01-20T10:57:31.313Z,1.50
2023-01-20T11:00:04.426Z,1.50
2023-01-20T11:02:34.828Z,1.60
2023-01-20T11:05:20.327Z,1.60
2023-01-20T11:07:47.661Z,1.10
2023-01-20T11:10:25.398Z,1.50
2023-01-20T11:12:54.797Z,1.20
2023-01-20T11:15:25.206Z,1.50
2023-01-20T11:18:10.461Z,1.50
2023-01-20T11:20:37.165Z,1.60
2023-01-20T11:23:06.100Z,1.80
2023-01-20T11:25:32.699Z,2.10
2023-01-20T11:28:02.771Z,2.20
2023-01-20T11:30:31.481Z,2.20
2023-01-20T11:33:20.206Z,2.10
2023-01-20T11:36:03.735Z,1.90
2023-01-20T11:38:32.471Z,2.10
2023-01-20T11:41:01.152Z,2.20
2023-01-20T11:43:28.715Z,2.00
2023-01-20T11:46:16.255Z,2.30
2023-01-20T11:48:45.269Z,2.10
2023-01-20T11:51:22.271Z,2.00
2023-01-20T11:53:48.947Z,2.10
2023-01-20T11:56:21.383Z,2.10
2023-01-20T11:58:54.470Z,2.30
2023-01-20T12:01:27.785Z,2.20
2023-01-20T12:04:08.750Z,2.10
2023-01-20T12:06:38.458Z,2.00
2023-01-20T12:09:10.200Z,2.40
2023-01-20T12:11:41.826Z,2.20
2023-01-20T12:14:20.415Z,1.80
2023-01-20T12:16:53.021Z,2.10
2023-01-20T12:19:20.829Z,2.00
2023-01-20T12:21:49.837Z,2.00
2023-01-20T12:24:20.848Z,1.80
2023-01-20T12:26:47.887Z,1.90
2023-01-20T12:29:24.464Z,1.80
2023-01-20T12:31:51.163Z,1.90
2023-01-20T12:34:23.174Z,1.80
2023-01-20T12:36:56.781Z,2.10
2023-01-20T12:39:26.095Z,2.00
2023-01-20T12:42:11.651Z,2.10
2023-01-20T12:44:44.078Z,2.20
2023-01-20T12:47:14.218Z,2.00
2023-01-20T12:49:46.371Z,2.30
2023-01-20T12:52:15.488Z,2.00
2023-01-20T12:54:48.441Z,1.40
2023-01-20T12:57:21.813Z,1.00
2023-01-20T12:59:54.329Z,1.00
2023-01-20T13:02:23.984Z,1.10
2023-01-20T13:05:09.298Z,1.60
2023-01-20T13:07:49.751Z,1.30
2023-01-20T13:10:50.190Z,1.20
2023-01-20T13:13:18.433Z,1.20
2023-01-20T13:15:53.339Z,1.00
2023-01-20T13:18:38.609Z,1.30
2023-01-20T13:21:05.198Z,1.40
2023-01-20T13:23:37.715Z,1.50
2023-01-20T13:26:07.565Z,1.60
2023-01-20T13:28:34.250Z,1.40
2023-01-20T13:31:01.704Z,1.60
2023-01-20T13:33:28.379Z,1.60
2023-01-20T13:35:57.701Z,1.60
2023-01-20T13:38:27.644Z,1.50
2023-01-20T13:40:58.591Z,1.60
2023-01-20T13:43:28.161Z,1.50
2023-01-20T13:46:04.192Z,1.60
2023-01-20T13:48:33.709Z,1.50
2023-01-20T13:51:15.370Z,1.40
2023-01-20T13:53:44.249Z,1.60
2023-01-20T13:56:38.026Z,1.60
2023-01-20T13:59:05.270Z,1.50
2023-01-20T14:01:37.223Z,1.60
2023-01-20T14:04:05.256Z,1.50
2023-01-20T14:06:34.113Z,1.50
2023-01-20T14:09:03.846Z,1.60
2023-01-20T14:11:31.285Z,1.60
2023-01-20T14:13:59.507Z,1.40
2023-01-20T14:16:30.789Z,1.30
2023-01-20T14:19:00.180Z,1.30
2023-01-20T14:21:32.860Z,1.40
2023-01-20T14:24:01.945Z,1.40
2023-01-20T14:26:29.766Z,1.50
2023-01-20T14:29:03.104Z,1.40
2023-01-20T14:31:35.209Z,1.20
2023-01-20T14:34:03.538Z,1.50
2023-01-20T14:36:33.031Z,1.20
2023-01-20T14:39:03.752Z,1.30
2023-01-20T14:41:34.281Z,1.20
2023-01-20T14:44:01.175Z,0.80
2023-01-20T14:46:28.978Z,0.70
2023-01-20T14:48:58.172Z,0.80
2023-01-20T14:51:24.850Z,0.70
2023-01-20T14:54:14.472Z,0.60
2023-01-20T14:56:46.789Z,0.90
2023-01-20T14:59:18.218Z,0.80
2023-01-20T15:01:50.336Z,0.80
2023-01-20T15:04:16.911Z,0.80
2023-01-20T15:06:50.507Z,0.80
2023-01-20T15:09:27.475Z,0.70
2023-01-20T15:12:14.093Z,0.80
2023-01-20T15:14:41.079Z,1.00
2023-01-20T15:17:08.895Z,1.00
2023-01-20T15:19:35.723Z,1.10
2023-01-20T15:22:16.643Z,1.20
2023-01-20T15:24:47.020Z,0.90
2023-01-20T15:27:24.367Z,0.90
2023-01-20T15:30:14.209Z,1.20
2023-01-20T15:32:40.903Z,1.10
2023-01-20T15:35:07.689Z,1.00
2023-01-20T15:37:34.411Z,0.90
2023-01-20T15:40:00.932Z,1.00
2023-01-20T15:42:29.880Z,1.20
2023-01-20T15:44:56.701Z,0.90
2023-01-20T15:47:29.226Z,0.60
2023-01-20T15:49:55.804Z,0.70
2023-01-20T15:52:24.612Z,0.70
2023-01-20T15:54:51.286Z,0.60
2023-01-20T15:57:18.100Z,0.70
2023-01-20T15:59:49.635Z,0.70
2023-01-20T16:02:19.925Z,0.70
2023-01-20T16:04:46.665Z,0.70
2023-01-20T16:07:15.253Z,0.90
2023-01-20T16:09:41.950Z,0.70
2023-01-20T16:12:13.219Z,0.80
2023-01-20T16:14:42.468Z,1.00
2023-01-20T16:17:16.585Z,1.20
2023-01-20T16:19:43.627Z,1.00
2023-01-20T16:22:16.487Z,1.30
2023-01-20T16:24:43.862Z,1.40
2023-01-20T16:27:16.629Z,1.30
2023-01-20T16:29:43.236Z,1.10
2023-01-20T16:32:12.174Z,1.10
2023-01-20T16:34:39.039Z,1.10
2023-01-20T16:37:06.376Z,0.90
2023-01-20T16:39:33.388Z,0.60
2023-01-20T16:41:59.985Z,0.70
2023-01-20T16:44:26.506Z,0.70
2023-01-20T16:46:55.623Z,0.90
2023-01-20T16:49:22.821Z,0.70
2023-01-20T16:51:49.505Z,0.80
2023-01-20T16:54:18.267Z,0.90
2023-01-20T16:56:44.823Z,0.80
2023-01-20T16:59:11.507Z,0.90
2023-01-20T17:01:41.046Z,1.10
2023-01-20T17:04:07.636Z,1.10
2023-01-20T17:06:34.752Z,1.20
2023-01-20T17:09:04.858Z,1.10
2023-01-20T17:11:32.813Z,1.00
2023-01-20T17:14:01.358Z,1.30
2023-01-20T17:16:28.019Z,1.00
2023-01-20T17:18:58.483Z,1.10
2023-01-20T17:21:26.497Z,0.90
2023-01-20T17:24:01.262Z,0.70
2023-01-20T17:26:28.407Z,0.40
2023-01-20T17:28:55.845Z,0.80
2023-01-20T17:31:22.799Z,0.70
2023-01-20T17:33:49.824Z,0.60
2023-01-20T17:36:20.549Z,0.50
2023-01-20T17:38:47.213Z,0.40
2023-01-20T17:41:14.281Z,0.70
2023-01-20T17:43:42.968Z,0.50
2023-01-20T17:46:15.412Z,0.70
2023-01-20T17:48:44.586Z,0.40
2023-01-20T17:51:11.319Z,0.40
2023-01-20T17:53:37.875Z,0.20
2023-01-20T17:56:12.477Z,0.30
2023-01-20T17:58:42.956Z,0.10
2023-01-20T18:01:12.750Z,0.10
2023-01-20T18:03:41.401Z,0.20
2023-01-20T18:06:10.159Z,0.00
2023-01-20T18:08:38.056Z,0.00
2023-01-20T18:11:05.402Z,0.00
2023-01-20T18:13:31.991Z,0.10
2023-01-20T18:16:03.980Z,0.20
2023-01-20T18:18:30.534Z,0.00
2023-01-20T18:21:06.560Z,0.00
2023-01-20T18:23:33.066Z,0.00
2023-01-20T18:25:59.600Z,0.10
2023-01-20T18:28:26.284Z,0.00
2023-01-20T18:30:58.544Z,0.00
2023-01-20T18:33:25.384Z,0.00
2023-01-20T18:35:54.364Z,0.00
2023-01-20T18:38:20.895Z,0.00
2023-01-20T18:40:47.482Z,0.10
2023-01-20T18:43:16.145Z,0.00
2023-01-20T18:45:42.774Z,0.00
2023-01-20T18:48:09.876Z,-3276.70
2023-01-20T18:50:41.172Z,0.10
2023-01-20T18:53:07.740Z,0.20
2023-01-20T18:55:37.634Z,0.00
2023-01-20T18:58:04.181Z,0.00
2023-01-20T19:00:30.961Z,0.00
2023-01-20T19:02:58.415Z,0.00
2023-01-20T19:05:25.056Z,0.00
2023-01-20T19:07:51.624Z,0.00
2023-01-20T19:10:23.220Z,0.00
2023-01-20T19:12:51.087Z,0.00
2023-01-20T19:15:17.804Z,-3276.70
2023-01-20T19:17:44.362Z,0.00
2023-01-20T19:20:11.230Z,-3276.70
2023-01-20T19:22:39.141Z,0.00
2023-01-20T19:25:05.928Z,0.10
2023-01-20T19:27:32.509Z,-3276.70
2023-01-20T19:29:59.127Z,0.00
2023-01-20T19:32:25.708Z,0.00
2023-01-20T19:34:52.320Z,0.00
2023-01-20T19:37:18.957Z,0.00
2023-01-20T19:39:45.534Z,-3276.70
2023-01-20T19:42:12.061Z,0.10
2023-01-20T19:44:38.617Z,0.10
2023-01-20T19:47:05.206Z,0.10
2023-01-20T19:49:31.847Z,0.10
2023-01-20T19:52:01.580Z,0.10
2023-01-20T19:54:30.818Z,0.50
2023-01-20T19:56:57.403Z,0.30
2023-01-20T19:59:24.005Z,0.30
2023-01-20T20:01:50.560Z,0.10
2023-01-20T20:04:20.492Z,0.20
2023-01-20T20:06:48.804Z,0.10
2023-01-20T20:09:16.652Z,0.30
2023-01-20T20:11:46.549Z,0.10
2023-01-20T20:14:16.802Z,0.00
2023-01-20T20:16:44.009Z,0.10
2023-01-20T20:19:12.075Z,0.10
2023-01-20T20:21:38.743Z,0.10
2023-01-20T20:24:05.514Z,0.10
2023-01-20T20:26:33.599Z,0.10
2023-01-20T20:29:05.967Z,0.10
2023-01-20T20:31:34.175Z,0.00
2023-01-20T20:34:01.555Z,0.00
2023-01-20T20:36:29.527Z,0.00
2023-01-20T20:38:57.715Z,0.00
2023-01-20T20:41:27.151Z,0.00
2023-01-20T20:43:53.877Z,0.00
2023-01-20T20:46:22.810Z,-3276.70
2023-01-20T20:48:49.408Z,0.00
2023-01-20T20:51:18.294Z,0.00
2023-01-20T20:53:47.097Z,0.00
2023-01-20T20:56:16.308Z,0.00
2023-01-20T20:59:00.059Z,0.00
2023-01-20T21:01:30.707Z,-3276.60
2023-01-20T21:03:57.949Z,0.00
2023-01-20T21:06:25.394Z,0.00
2023-01-20T21:08:52.611Z,0.00
2023-01-20T21:11:21.363Z,0.00
2023-01-20T21:13:51.047Z,0.00
2023-01-20T21:16:22.727Z,0.00
2023-01-20T21:18:50.003Z,0.00
2023-01-20T21:21:19.638Z,-3276.60
2023-01-20T21:23:50.155Z,-3276.60
2023-01-20T21:26:16.798Z,0.00
2023-01-20T21:28:44.330Z,-3276.70
2023-01-20T21:31:14.749Z,0.00
2023-01-20T21:33:45.746Z,-3276.60
2023-01-20T21:36:13.038Z,-3276.70
2023-01-20T21:38:41.502Z,0.00
2023-01-20T21:41:09.901Z,-3276.60
2023-01-20T21:43:56.658Z,-3276.50
2023-01-20T21:46:23.493Z,-3276.70
2023-01-20T21:49:08.714Z,-3276.50
2023-01-20T21:51:54.144Z,0.00
2023-01-20T21:54:21.040Z,-3276.60
2023-01-20T21:56:48.485Z,-3276.70
2023-01-20T21:59:15.182Z,0.00
2023-01-20T22:01:41.796Z,0.00
2023-01-20T22:04:08.452Z,0.00
2023-01-20T22:06:35.103Z,-3276.70
2023-01-20T22:09:01.768Z,0.00
2023-01-20T22:11:28.381Z,-3276.70
2023-01-20T22:13:57.784Z,0.10
2023-01-20T22:16:27.079Z,0.10
2023-01-20T22:18:53.804Z,0.10
2023-01-20T22:21:21.367Z,0.20
2023-01-20T22:23:48.002Z,0.10
2023-01-20T22:26:17.027Z,0.10
2023-01-20T22:28:43.667Z,0.30
2023-01-20T22:31:11.552Z,0.20
2023-01-20T22:33:38.096Z,0.10
2023-01-20T22:36:07.292Z,0.10
2023-01-20T22:38:34.207Z,0.10
2023-01-20T22:41:05.333Z,0.00
2023-01-20T22:43:32.053Z,0.20
2023-01-20T22:45:59.667Z,0.00
2023-01-20T22:48:26.762Z,0.00
2023-01-20T22:50:54.616Z,0.10
2023-01-20T22:53:21.286Z,0.00
2023-01-20T22:56:00.318Z,0.10
2023-01-20T22:58:27.641Z,0.10
2023-01-20T23:00:54.295Z,0.10
2023-01-20T23:03:20.896Z,0.10
2023-01-20T23:05:56.834Z,0.20
2023-01-20T23:08:27.298Z,0.00
2023-01-20T23:10:54.920Z,0.10
2023-01-20T23:13:21.671Z,0.00
2023-01-20T23:15:51.975Z,0.10
2023-01-20T23:18:19.108Z,0.20
2023-01-20T23:20:52.293Z,0.20
2023-01-20T23:23:19.348Z,0.10
2023-01-20T23:25:46.435Z,0.10
2023-01-20T23:28:13.464Z,0.00
2023-01-20T23:30:40.255Z,0.00
2023-01-20T23:33:10.320Z,0.00
2023-01-20T23:35:38.835Z,0.00
2023-01-20T23:38:08.880Z,0.00
2023-01-20T23:40:35.625Z,0.00
2023-01-20T23:43:02.386Z,0.00
2023-01-20T23:45:29.200Z,0.00
2023-01-20T23:48:01.284Z,-3276.70
2023-01-20T23:50:27.992Z,-3276.70
2023-01-20T23:52:57.474Z,-3276.70
2023-01-20T23:55:28.900Z,-3276.60
2023-01-20T23:57:56.098Z,-3276.30
